Time;durP1;ratioP1;P1;durP2;ratioP2;P2;SDS_P1;SDS_P2;PMS_P1;PMS_P2;Temp;Humidity;BMP_temperature;BMP_pressure;BME280_temperature;BME280_humidity;BME280_pressure;Samples;Min_cycle;Max_cycle;Signal;HPM_P1;HPM_P2
2021/11/20 00:00:29;;;;;;;41.83;24.83;;;11.40;99.90;;;;;;5002415;28;20061;-83
2021/11/20 00:03:15;;;;;;;;;;;;;;;;;;;;;
2021/11/20 00:10:12;;;;;;;52.83;26.17;;;11.50;99.90;;;;;;5012643;28;20061;-83
2021/11/20 00:13:28;;;;;;;49.10;23.25;;;11.30;99.90;;;;;;5005962;28;20046;-83
2021/11/20 00:16:23;;;;;;;52.70;25.60;;;11.50;99.90;;;;;;5011520;28;20214;-84
2021/11/20 00:19:28;;;;;;;54.15;25.35;;;11.40;99.90;;;;;;4995967;28;20045;-84
2021/11/20 00:22:43;;;;;;;55.22;26.40;;;11.50;99.90;;;;;;5010369;28;20054;-82
2021/11/20 00:25:52;;;;;;;50.65;25.52;;;11.70;99.90;;;;;;5015806;28;20050;-82
2021/11/20 00:29:18;;;;;;;58.08;26.92;;;12.80;99.90;;;;;;5017301;28;20061;-84
2021/11/20 00:32:57;;;;;;;51.97;27.05;;;11.50;99.90;;;;;;5005789;28;20064;-83
2021/11/20 00:35:44;;;;;;;49.10;26.88;;;11.40;99.90;;;;;;4967861;28;20051;-85
2021/11/20 00:43:34;;;;;;;47.60;26.85;;;9.90;99.90;;;;;;4783562;29;20093;-85
2021/11/20 00:47:41;;;;;;;49.80;24.73;;;12.10;99.90;;;;;;4847937;29;20050;-83
2021/11/20 00:51:31;;;;;;;;;;;;;;;;;;;;;
2021/11/20 00:54:28;;;;;;;48.67;25.73;;;11.30;99.90;;;;;;4844289;29;20065;-85
2021/11/20 00:57:13;;;;;;;47.78;25.33;;;11.40;99.90;;;;;;4852155;29;20097;-83
2021/11/20 01:00:36;;;;;;;46.08;26.98;;;11.30;99.90;;;;;;4846705;29;20062;-83
2021/11/20 01:06:17;;;;;;;39.50;21.42;;;11.90;99.90;;;;;;4873875;29;20075;-83
2021/11/20 01:08:51;;;;;;;44.13;22.63;;;11.20;99.90;;;;;;4911170;28;20071;-84
2021/11/20 01:12:16;;;;;;;38.85;22.42;;;11.20;99.90;;;;;;4969085;28;20059;-88
2021/11/20 01:19:52;;;;;;;35.20;19.42;;;11.20;99.90;;;;;;4996201;28;20066;-83
2021/11/20 01:22:30;;;;;;;36.05;20.17;;;11.10;99.90;;;;;;4969361;28;20497;-84
2021/11/20 01:25:37;;;;;;;41.47;21.73;;;11.10;99.90;;;;;;4983193;28;20054;-83
2021/11/20 01:28:49;;;;;;;41.20;21.92;;;11.00;99.90;;;;;;5001605;28;20065;-84
2021/11/20 01:31:29;;;;;;;41.47;22.17;;;11.10;99.90;;;;;;4987184;28;20065;-83
2021/11/20 01:34:01;;;;;;;41.08;22.67;;;10.60;99.90;;;;;;5020735;28;20062;-82
2021/11/20 01:36:43;;;;;;;43.10;21.55;;;11.00;99.90;;;;;;4975786;28;20046;-82
2021/11/20 01:39:19;;;;;;;44.78;20.95;;;11.00;99.90;;;;;;4984844;28;20129;-83
2021/11/20 01:42:24;;;;;;;44.97;22.77;;;11.20;99.90;;;;;;4956811;28;20065;-83
2021/11/20 01:45:27;;;;;;;37.72;20.80;;;11.10;99.90;;;;;;4948022;28;20061;-83
2021/11/20 01:48:40;;;;;;;41.20;22.02;;;11.00;99.90;;;;;;4976884;28;20047;-82
2021/11/20 01:51:26;;;;;;;44.08;24.77;;;11.00;99.90;;;;;;4983405;28;20057;-82
2021/11/20 01:54:18;;;;;;;43.50;23.08;;;10.90;99.90;;;;;;4979856;28;20055;-83
2021/11/20 01:57:27;;;;;;;41.95;23.27;;;10.90;99.90;;;;;;4989561;28;20078;-83
2021/11/20 02:00:09;;;;;;;41.53;22.17;;;11.00;99.90;;;;;;4979679;28;20047;-82
2021/11/20 02:03:07;;;;;;;43.10;22.33;;;11.00;99.90;;;;;;4991243;28;20043;-83
2021/11/20 02:06:06;;;;;;;39.75;22.55;;;11.00;99.90;;;;;;4989142;28;20054;-83
2021/11/20 02:08:45;;;;;;;;;;;10.90;99.90;;;;;;4973232;28;20053;-85
2021/11/20 02:11:51;;;;;;;39.10;22.17;;;10.90;99.90;;;;;;5009798;28;19932;-83
2021/11/20 02:14:21;;;;;;;38.45;22.02;;;11.00;99.90;;;;;;4974851;28;20055;-83
2021/11/20 02:17:06;;;;;;;42.70;22.17;;;10.90;99.90;;;;;;4995423;28;20064;-81
2021/11/20 02:19:43;;;;;;;40.88;21.35;;;9.60;99.90;;;;;;4983417;28;20057;-82
2021/11/20 02:22:35;;;;;;;41.13;23.85;;;10.90;99.90;;;;;;5013072;28;20065;-81
2021/11/20 02:25:06;;;;;;;41.15;21.23;;;10.80;99.90;;;;;;4954194;28;20524;-82
2021/11/20 02:27:56;;;;;;;38.80;20.58;;;10.80;99.90;;;;;;4984351;28;20059;-82
2021/11/20 02:30:41;;;;;;;36.50;19.77;;;10.80;99.90;;;;;;4983178;28;20057;-81
2021/11/20 02:33:09;;;;;;;40.85;22.23;;;10.80;99.90;;;;;;4983590;28;20055;-83
2021/11/20 02:35:49;;;;;;;41.55;20.52;;;10.80;99.90;;;;;;4982238;28;20057;-81
2021/11/20 02:38:23;;;;;;;36.40;20.42;;;10.70;99.90;;;;;;4966013;28;20054;-82
2021/11/20 02:40:53;;;;;;;39.53;21.25;;;10.70;99.90;;;;;;4983333;28;20050;-82
2021/11/20 02:43:23;;;;;;;46.45;24.10;;;10.70;99.90;;;;;;4979062;28;20123;-80
2021/11/20 02:46:16;;;;;;;38.45;18.60;;;10.70;99.90;;;;;;4982739;28;20043;-81
2021/11/20 02:48:47;;;;;;;38.90;18.77;;;10.90;99.90;;;;;;4964434;29;20047;-81
2021/11/20 02:51:20;;;;;;;41.35;21.83;;;9.80;99.90;;;;;;4996728;28;20039;-81
2021/11/20 02:54:01;;;;;;;36.53;19.58;;;10.70;99.90;;;;;;4949335;28;20058;-81
2021/11/20 02:56:37;;;;;;;39.30;20.23;;;10.70;99.90;;;;;;4979009;28;20401;-81
2021/11/20 02:59:06;;;;;;;33.85;18.88;;;10.70;99.90;;;;;;4966533;29;20054;-82
2021/11/20 03:01:45;;;;;;;39.30;18.95;;;10.60;99.90;;;;;;4948102;29;20057;-82
2021/11/20 03:04:18;;;;;;;36.90;18.83;;;10.60;99.90;;;;;;4964910;28;20055;-81
2021/11/20 03:06:51;;;;;;;38.72;19.20;;;10.60;99.90;;;;;;4959007;28;20055;-81
2021/11/20 03:09:23;;;;;;;35.67;17.83;;;10.70;99.90;;;;;;4986492;28;20047;-80
2021/11/20 03:11:57;;;;;;;33.70;17.08;;;11.50;99.90;;;;;;4985343;28;20058;-81
2021/11/20 03:14:26;;;;;;;34.10;19.08;;;10.60;99.90;;;;;;4951086;28;20058;-81
2021/11/20 03:16:59;;;;;;;35.28;20.65;;;10.60;99.90;;;;;;4625367;28;9999755;-82
2021/11/20 03:19:31;;;;;;;35.58;19.02;;;10.50;99.90;;;;;;4985803;28;20046;-82
2021/11/20 03:22:06;;;;;;;34.80;19.35;;;10.50;99.90;;;;;;4984210;28;20062;-81
2021/11/20 03:24:36;;;;;;;43.47;20.92;;;10.50;99.90;;;;;;5000278;28;20051;-81
2021/11/20 03:27:05;;;;;;;33.38;17.02;;;10.50;99.90;;;;;;4985220;28;20054;-82
2021/11/20 03:29:35;;;;;;;35.20;17.50;;;10.50;99.90;;;;;;4944373;28;20051;-81
2021/11/20 03:32:05;;;;;;;36.13;17.80;;;10.50;99.90;;;;;;4985346;28;20047;-81
2021/11/20 03:34:37;;;;;;;34.03;18.98;;;10.50;99.90;;;;;;4986832;28;20043;-81
2021/11/20 03:37:05;;;;;;;34.20;17.80;;;10.50;99.90;;;;;;4986991;28;20049;-80
2021/11/20 03:39:41;;;;;;;34.85;18.50;;;9.60;99.90;;;;;;4971367;28;20054;-81
2021/11/20 03:42:11;;;;;;;31.75;17.80;;;10.50;99.90;;;;;;4986554;28;20061;-80
2021/11/20 03:44:44;;;;;;;33.33;18.73;;;10.60;99.90;;;;;;4987689;28;20061;-81
2021/11/20 03:47:13;;;;;;;34.10;17.98;;;10.60;99.90;;;;;;4970850;28;20047;-81
2021/11/20 03:49:44;;;;;;;35.83;19.77;;;10.60;99.90;;;;;;4984488;28;20050;-81
2021/11/20 03:52:15;;;;;;;36.40;20.77;;;10.60;99.90;;;;;;4972571;28;20301;-81
2021/11/20 03:54:46;;;;;;;33.72;19.38;;;10.70;99.90;;;;;;4996720;28;20051;-81
2021/11/20 03:57:17;;;;;;;36.72;20.27;;;10.60;99.90;;;;;;4970019;28;20046;-81
2021/11/20 03:59:47;;;;;;;34.22;18.92;;;10.60;99.90;;;;;;4984227;28;20062;-81
2021/11/20 04:02:16;;;;;;;38.95;18.20;;;10.60;99.90;;;;;;4984977;28;20051;-81
2021/11/20 04:04:45;;;;;;;35.22;19.92;;;10.60;99.90;;;;;;4984778;28;20054;-81
2021/11/20 04:07:14;;;;;;;32.95;17.40;;;10.60;99.90;;;;;;5001019;28;20046;-82
2021/11/20 04:09:43;;;;;;;36.85;18.40;;;10.50;99.90;;;;;;4983264;28;20043;-81
2021/11/20 04:12:14;;;;;;;36.47;20.73;;;10.60;99.90;;;;;;4967535;28;20127;-83
2021/11/20 04:14:43;;;;;;;31.23;17.75;;;10.50;99.90;;;;;;4967217;28;20297;-82
2021/11/20 04:17:11;;;;;;;33.38;16.65;;;11.00;99.90;;;;;;5000150;28;20074;-82
2021/11/20 04:19:42;;;;;;;31.92;17.65;;;10.50;99.90;;;;;;4971165;28;20513;-81
2021/11/20 04:22:10;;;;;;;32.08;16.85;;;10.50;99.90;;;;;;4970939;28;20053;-82
2021/11/20 04:24:40;;;;;;;32.20;17.83;;;10.50;99.90;;;;;;4987116;28;20130;-82
2021/11/20 04:27:21;;;;;;;31.13;17.35;;;10.50;99.90;;;;;;4965398;29;20051;-83
2021/11/20 04:30:22;;;;;;;29.23;16.73;;;10.50;99.90;;;;;;4943228;29;20059;-82
2021/11/20 04:32:51;;;;;;;;;;;10.60;99.90;;;;;;4957164;28;20047;-82
2021/11/20 04:35:23;;;;;;;28.83;17.40;;;10.60;99.90;;;;;;4990910;28;20319;-81
2021/11/20 04:37:52;;;;;;;41.40;17.17;;;10.60;99.90;;;;;;4967267;29;20066;-81
2021/11/20 04:40:23;;;;;;;30.10;16.65;;;10.60;99.90;;;;;;4983226;28;20047;-82
2021/11/20 04:42:54;;;;;;;34.70;18.10;;;10.60;99.90;;;;;;5005506;28;20049;-81
2021/11/20 04:45:26;;;;;;;28.95;15.80;;;10.60;99.90;;;;;;4981328;28;20043;-81
2021/11/20 04:47:56;;;;;;;25.40;14.45;;;10.70;99.90;;;;;;4994249;28;20057;-82
2021/11/20 04:50:38;;;;;;;32.38;16.70;;;10.60;99.90;;;;;;4996903;28;20046;-81
2021/11/20 04:53:08;;;;;;;29.38;16.58;;;10.60;99.90;;;;;;5005638;28;20042;-81
2021/11/20 04:55:36;;;;;;;28.05;14.13;;;10.60;99.90;;;;;;5005938;28;20061;-81
2021/11/20 04:58:08;;;;;;;25.85;13.32;;;10.60;99.90;;;;;;5001950;28;20049;-81
2021/11/20 05:00:48;;;;;;;28.20;15.27;;;10.60;99.90;;;;;;4986595;28;20055;-81
2021/11/20 05:03:21;;;;;;;28.42;15.55;;;10.70;99.90;;;;;;4973111;28;20051;-83
2021/11/20 05:05:53;;;;;;;29.37;14.90;;;10.70;99.90;;;;;;4994930;28;20047;-81
2021/11/20 05:08:22;;;;;;;28.33;15.77;;;10.00;99.90;;;;;;4957458;28;20069;-82
2021/11/20 05:10:55;;;;;;;26.27;13.75;;;10.70;99.90;;;;;;4989410;28;20042;-83
2021/11/20 05:13:26;;;;;;;27.27;13.77;;;10.70;99.90;;;;;;4990149;28;20050;-81
2021/11/20 05:15:57;;;;;;;;;;;10.70;99.90;;;;;;4971193;28;20076;-81
2021/11/20 05:18:30;;;;;;;24.05;12.23;;;10.70;99.90;;;;;;4955814;29;19926;-82
2021/11/20 05:21:13;;;;;;;23.90;12.93;;;10.70;99.90;;;;;;4968626;29;20050;-82
2021/11/20 05:23:46;;;;;;;23.30;11.93;;;10.70;99.90;;;;;;4997402;28;20035;-82
2021/11/20 05:26:16;;;;;;;26.52;12.80;;;10.70;99.90;;;;;;4969379;29;20053;-82
2021/11/20 05:29:18;;;;;;;23.42;11.63;;;10.70;99.90;;;;;;4985302;28;20650;-81
2021/11/20 05:31:51;;;;;;;22.98;11.75;;;10.90;99.90;;;;;;4976615;28;20050;-82
2021/11/20 05:34:20;;;;;;;28.20;13.00;;;10.80;99.90;;;;;;4994531;28;20054;-81
2021/11/20 05:36:48;;;;;;;18.98;10.77;;;10.80;99.90;;;;;;5004027;28;20069;-81
2021/11/20 05:39:20;;;;;;;22.85;11.05;;;10.80;99.90;;;;;;4990920;28;20046;-82
2021/11/20 05:41:48;;;;;;;22.00;11.05;;;10.90;99.90;;;;;;4988525;28;20062;-81
2021/11/20 05:44:16;;;;;;;22.45;11.02;;;10.80;99.90;;;;;;4992142;28;20046;-82
2021/11/20 05:46:58;;;;;;;17.02;9.68;;;10.80;99.90;;;;;;5003699;28;20703;-81
2021/11/20 05:49:34;;;;;;;21.80;12.00;;;10.80;99.90;;;;;;5002962;28;20046;-82
2021/11/20 05:52:08;;;;;;;22.60;10.95;;;10.90;99.90;;;;;;5021791;28;20050;-82
2021/11/20 05:54:37;;;;;;;20.52;10.90;;;10.80;99.90;;;;;;5007081;28;20133;-81
2021/11/20 05:57:12;;;;;;;21.38;10.95;;;10.90;99.90;;;;;;4984252;28;20048;-82
2021/11/20 05:59:41;;;;;;;21.73;11.50;;;10.90;99.90;;;;;;4985962;28;20058;-81
2021/11/20 06:02:15;;;;;;;21.13;10.43;;;10.90;99.90;;;;;;4985652;28;20056;-81
2021/11/20 06:04:51;;;;;;;22.35;11.00;;;10.90;99.90;;;;;;4988171;28;20064;-82
2021/11/20 06:07:20;;;;;;;15.70;9.07;;;10.80;99.90;;;;;;5002289;28;20050;-81
2021/11/20 06:09:50;;;;;;;17.27;8.63;;;10.90;99.90;;;;;;5002653;28;20069;-82
2021/11/20 06:12:25;;;;;;;15.18;9.13;;;10.80;99.90;;;;;;4985361;28;20058;-82
2021/11/20 06:14:54;;;;;;;17.45;8.93;;;10.80;99.90;;;;;;4998225;28;20034;-83
2021/11/20 06:17:24;;;;;;;13.15;6.75;;;10.90;99.90;;;;;;4970890;28;20057;-82
2021/11/20 06:19:52;;;;;;;12.55;6.75;;;10.80;99.90;;;;;;4985591;28;20053;-82
2021/11/20 06:22:22;;;;;;;15.00;7.85;;;10.80;99.90;;;;;;4986616;28;20440;-81
2021/11/20 06:24:54;;;;;;;14.27;7.18;;;10.80;99.90;;;;;;5001678;28;20046;-81
2021/11/20 06:27:23;;;;;;;12.55;6.47;;;10.70;99.90;;;;;;4990662;28;20058;-83
2021/11/20 06:30:00;;;;;;;11.68;7.70;;;10.70;99.90;;;;;;4985514;28;20054;-82
2021/11/20 06:32:29;;;;;;;13.90;7.82;;;10.70;99.90;;;;;;5000700;28;20042;-82
2021/11/20 06:35:16;;;;;;;12.93;6.60;;;10.80;99.90;;;;;;4979485;28;20054;-81
2021/11/20 06:37:54;;;;;;;13.52;8.02;;;10.80;99.90;;;;;;5001919;28;20697;-82
2021/11/20 06:40:28;;;;;;;16.55;7.25;;;10.80;99.90;;;;;;4986258;28;20043;-81
2021/11/20 06:42:59;;;;;;;14.05;7.18;;;10.70;99.90;;;;;;4986821;28;20061;-81
2021/11/20 06:45:32;;;;;;;17.25;8.05;;;11.50;99.90;;;;;;4978993;28;20061;-81
2021/11/20 06:48:01;;;;;;;12.55;6.70;;;10.70;99.90;;;;;;4989617;28;20050;-82
2021/11/20 06:50:34;;;;;;;12.93;6.05;;;10.70;99.90;;;;;;4987907;28;20042;-82
2021/11/20 06:53:22;;;;;;;13.88;6.85;;;10.70;99.90;;;;;;5005875;28;20429;-81
2021/11/20 06:56:30;;;;;;;17.88;7.03;;;10.70;99.90;;;;;;5002319;28;20042;-81
2021/11/20 07:02:16;;;;;;;9.93;5.93;;;10.70;99.90;;;;;;5017905;28;20043;-82
2021/11/20 07:04:45;;;;;;;11.02;6.03;;;10.80;99.90;;;;;;4981251;28;20057;-81
2021/11/20 07:07:13;;;;;;;12.60;6.05;;;10.80;99.90;;;;;;4981805;28;20058;-82
2021/11/20 07:09:42;;;;;;;12.25;5.95;;;10.80;99.90;;;;;;4982198;28;20046;-82
2021/11/20 07:12:11;;;;;;;13.70;6.45;;;10.80;99.90;;;;;;4982298;28;20054;-81
2021/11/20 07:14:39;;;;;;;11.98;6.78;;;10.80;99.90;;;;;;4950057;28;20050;-81
2021/11/20 07:17:08;;;;;;;12.80;6.88;;;10.80;99.90;;;;;;4982091;28;20057;-81
2021/11/20 07:19:50;;;;;;;10.75;6.30;;;10.80;99.90;;;;;;4981717;28;20047;-81
2021/11/20 07:22:42;;;;;;;;;;;10.90;99.90;;;;;;4984884;28;20062;-82
2021/11/20 07:25:16;;;;;;;11.23;5.57;;;10.80;99.90;;;;;;4947299;29;19927;-81
2021/11/20 07:27:44;;;;;;;12.43;6.00;;;9.40;99.90;;;;;;4984832;28;20058;-81
2021/11/20 07:30:16;;;;;;;10.70;5.65;;;10.70;99.90;;;;;;4962258;29;20532;-80
2021/11/20 07:32:47;;;;;;;13.90;5.75;;;10.70;99.90;;;;;;4968738;28;20895;-82
2021/11/20 07:35:29;;;;;;;13.00;6.93;;;10.70;99.90;;;;;;4992397;28;20051;-81
2021/11/20 07:37:57;;;;;;;11.68;6.15;;;10.80;99.90;;;;;;4984675;28;20047;-81
2021/11/20 07:40:28;;;;;;;13.45;6.05;;;10.80;99.90;;;;;;5001121;28;20058;-81
2021/11/20 07:42:56;;;;;;;12.75;6.78;;;10.80;99.90;;;;;;5002547;28;20053;-81
2021/11/20 07:45:44;;;;;;;10.90;5.32;;;10.80;99.90;;;;;;5002405;28;20508;-82
2021/11/20 07:48:16;;;;;;;14.80;6.75;;;10.80;99.90;;;;;;4985900;28;20061;-82
2021/11/20 07:50:46;;;;;;;13.75;6.50;;;10.80;99.90;;;;;;5000713;28;20065;-83
2021/11/20 07:53:38;;;;;;;11.13;5.40;;;10.90;99.90;;;;;;5007826;28;20066;-81
2021/11/20 07:56:08;;;;;;;10.47;5.03;;;10.90;99.90;;;;;;4997536;28;20451;-81
2021/11/20 07:58:41;;;;;;;11.82;5.70;;;10.90;99.90;;;;;;4998517;28;20050;-83
2021/11/20 08:01:11;;;;;;;9.20;4.63;;;10.80;99.90;;;;;;5002943;28;20067;-81
2021/11/20 08:03:44;;;;;;;10.93;3.70;;;11.00;99.90;;;;;;5020425;28;20051;-82
2021/11/20 08:06:31;;;;;;;7.65;3.95;;;10.80;99.90;;;;;;5000311;28;20048;-82
2021/11/20 08:09:15;;;;;;;8.27;4.15;;;10.80;99.90;;;;;;5003571;28;20054;-82
2021/11/20 08:12:07;;;;;;;8.40;3.75;;;10.80;99.90;;;;;;4997826;28;20080;-81
2021/11/20 08:15:11;;;;;;;5.93;3.03;;;10.80;99.90;;;;;;4788950;28;10000837;-81
2021/11/20 08:17:57;;;;;;;7.88;3.58;;;10.80;99.90;;;;;;5002956;28;20268;-83
2021/11/20 08:21:03;;;;;;;6.63;3.05;;;10.80;99.90;;;;;;4992297;28;20046;-82
2021/11/20 08:24:07;;;;;;;9.15;3.15;;;10.80;99.90;;;;;;5004602;28;20057;-82
2021/11/20 08:26:41;;;;;;;5.80;2.97;;;10.80;99.90;;;;;;5007965;28;20046;-80
2021/11/20 08:29:15;;;;;;;5.05;2.65;;;10.80;99.90;;;;;;5024059;28;20046;-82
2021/11/20 08:31:46;;;;;;;5.85;2.78;;;10.80;99.90;;;;;;4978368;28;20058;-82
2021/11/20 08:34:23;;;;;;;11.00;3.78;;;10.80;99.90;;;;;;5015615;28;20065;-82
2021/11/20 08:37:12;;;;;;;6.82;4.22;;;10.90;99.90;;;;;;4972764;28;20046;-82
2021/11/20 08:39:46;;;;;;;8.13;2.83;;;10.90;99.90;;;;;;4985292;28;20057;-82
2021/11/20 08:42:16;;;;;;;5.00;2.83;;;10.90;99.90;;;;;;4986400;28;20076;-81
2021/11/20 08:45:08;;;;;;;8.57;4.47;;;10.90;99.90;;;;;;4970114;28;20086;-82
2021/11/20 08:47:48;;;;;;;4.00;2.38;;;10.90;99.90;;;;;;4964945;28;20066;-81
2021/11/20 08:50:30;;;;;;;4.60;2.45;;;10.90;99.90;;;;;;4976515;28;20715;-82
2021/11/20 08:52:58;;;;;;;7.20;3.50;;;10.90;99.90;;;;;;4969157;28;20051;-82
2021/11/20 08:55:32;;;;;;;3.58;3.00;;;9.90;99.90;;;;;;4990927;28;20047;-81
2021/11/20 08:58:25;;;;;;;7.78;3.28;;;11.00;99.90;;;;;;4960336;28;20065;-81
2021/11/20 09:01:04;;;;;;;6.05;3.15;;;11.00;99.90;;;;;;4978568;28;20061;-81
2021/11/20 09:03:58;;;;;;;5.70;2.75;;;11.10;99.90;;;;;;5008223;28;20058;-81
2021/11/20 09:06:51;;;;;;;6.85;2.92;;;11.10;99.90;;;;;;4973415;28;20046;-82
2021/11/20 09:09:25;;;;;;;4.22;2.50;;;11.20;99.90;;;;;;4971958;28;20051;-82
2021/11/20 09:12:16;;;;;;;6.72;2.42;;;11.20;99.90;;;;;;4979749;28;20051;-82
2021/11/20 09:14:49;;;;;;;7.47;2.90;;;11.30;99.90;;;;;;5002602;28;20055;-81
2021/11/20 09:17:20;;;;;;;5.25;3.15;;;11.30;99.90;;;;;;4988762;28;20050;-82
2021/11/20 09:19:50;;;;;;;6.47;3.17;;;11.40;99.90;;;;;;4989819;28;20046;-81
2021/11/20 09:22:23;;;;;;;4.25;2.75;;;11.40;99.90;;;;;;4990652;28;20051;-81
2021/11/20 09:25:44;;;;;;;7.55;2.53;;;11.40;99.90;;;;;;4977153;28;20214;-87
2021/11/20 09:28:50;;;;;;;5.30;3.08;;;11.40;99.90;;;;;;4979471;28;20066;-83
2021/11/20 09:31:45;;;;;;;5.13;2.63;;;11.30;99.90;;;;;;4993841;28;20034;-83
2021/11/20 09:34:47;;;;;;;4.30;2.40;;;11.40;99.90;;;;;;4963375;28;20061;-83
2021/11/20 09:37:59;;;;;;;8.93;3.05;;;11.50;99.90;;;;;;4988720;28;20043;-84
2021/11/20 09:41:22;;;;;;;7.18;3.08;;;11.50;99.90;;;;;;4970220;28;20042;-83
2021/11/20 09:43:57;;;;;;;4.85;3.08;;;12.60;99.90;;;;;;4985445;28;20050;-83
2021/11/20 09:46:44;;;;;;;8.85;3.85;;;11.60;99.90;;;;;;4967171;29;20059;-84
2021/11/20 09:49:59;;;;;;;11.15;3.40;;;11.50;99.90;;;;;;4994980;28;20066;-83
2021/11/20 09:52:32;;;;;;;6.28;3.75;;;12.90;99.90;;;;;;5034209;23;20065;-87
2021/11/20 09:55:00;;;;;;;9.23;4.80;;;11.60;99.90;;;;;;5037072;28;20266;-88
2021/11/20 09:57:33;;;;;;;5.97;3.50;;;11.60;99.90;;;;;;5011775;28;20466;-87
2021/11/20 10:00:34;;;;;;;8.00;3.50;;;11.60;99.90;;;;;;4996749;28;20049;-88
2021/11/20 10:03:07;;;;;;;8.93;2.88;;;11.70;99.90;;;;;;4992550;28;20050;-88
2021/11/20 10:05:41;;;;;;;9.20;4.05;;;11.70;99.90;;;;;;5030308;28;20060;-88
2021/11/20 10:08:14;;;;;;;10.00;4.05;;;11.70;99.90;;;;;;5010108;28;20045;-89
2021/11/20 10:10:44;;;;;;;7.65;3.38;;;11.70;99.90;;;;;;5005827;28;20057;-88
2021/11/20 10:13:23;;;;;;;5.22;3.03;;;11.70;99.90;;;;;;5012394;28;20057;-88
2021/11/20 10:16:07;;;;;;;9.05;3.78;;;11.80;99.90;;;;;;5012742;28;20049;-87
2021/11/20 10:18:40;;;;;;;6.30;3.33;;;11.80;99.90;;;;;;5013763;28;20049;-86
2021/11/20 10:21:09;;;;;;;7.65;3.33;;;11.80;99.90;;;;;;5017257;28;20048;-88
2021/11/20 10:23:47;;;;;;;7.13;3.15;;;11.80;99.90;;;;;;5029521;28;20061;-88
2021/11/20 10:26:42;;;;;;;6.78;3.38;;;11.80;99.90;;;;;;5030667;28;20436;-87
2021/11/20 10:29:49;;;;;;;8.73;3.60;;;11.90;99.90;;;;;;4990328;28;20492;-90
2021/11/20 10:32:40;;;;;;;9.25;3.58;;;11.90;99.90;;;;;;5024215;28;20045;-88
2021/11/20 10:35:36;;;;;;;5.22;3.20;;;11.90;99.90;;;;;;5028306;28;20044;-89
2021/11/20 10:38:21;;;;;;;7.80;4.30;;;11.80;99.90;;;;;;5047730;28;20057;-87
2021/11/20 10:41:28;;;;;;;7.45;3.15;;;11.90;99.90;;;;;;5008906;28;20049;-88
2021/11/20 10:44:34;;;;;;;11.38;4.72;;;11.90;99.90;;;;;;4989857;28;20057;-88
2021/11/20 10:47:12;;;;;;;8.15;4.95;;;11.90;99.90;;;;;;5018070;28;20054;-85
2021/11/20 10:49:52;;;;;;;8.45;4.22;;;11.90;99.90;;;;;;5029151;28;20037;-88
2021/11/20 10:53:00;;;;;;;7.20;3.97;;;11.90;99.90;;;;;;5021965;28;20041;-87
2021/11/20 10:56:00;;;;;;;6.45;4.32;;;11.90;99.90;;;;;;5056348;28;20051;-88
2021/11/20 10:59:18;;;;;;;5.90;4.15;;;11.90;99.90;;;;;;5066017;28;20046;-88
2021/11/20 11:06:15;;;;;;;8.38;3.55;;;11.90;99.90;;;;;;5062187;28;20049;-87
2021/11/20 11:09:14;;;;;;;10.35;3.83;;;11.90;99.90;;;;;;5029207;28;20052;-87
2021/11/20 11:11:58;;;;;;;9.43;4.88;;;11.90;99.90;;;;;;5077363;28;20060;-90
2021/11/20 11:14:58;;;;;;;7.53;3.83;;;11.20;99.90;;;;;;5036552;28;20057;-88
2021/11/20 11:17:32;;;;;;;11.60;3.88;;;11.90;99.90;;;;;;5037189;28;20057;-91
2021/11/20 11:20:40;;;;;;;12.82;4.55;;;11.90;99.90;;;;;;5046165;28;20057;-89
2021/11/20 11:23:55;;;;;;;10.18;3.72;;;11.90;99.90;;;;;;5036689;28;20053;-87
2021/11/20 11:26:35;;;;;;;8.00;4.18;;;12.40;99.90;;;;;;5019627;28;20052;-91
2021/11/20 11:29:41;;;;;;;9.52;4.10;;;11.90;99.90;;;;;;5029567;28;20052;-90
2021/11/20 11:32:11;;;;;;;12.82;4.78;;;11.80;99.90;;;;;;5066214;28;20037;-88
2021/11/20 11:34:57;;;;;;;12.73;4.43;;;11.80;99.90;;;;;;5057772;28;20053;-88
2021/11/20 11:37:40;;;;;;;9.85;4.82;;;11.80;99.90;;;;;;5047323;28;20380;-88
2021/11/20 11:40:35;;;;;;;18.50;5.57;;;11.70;99.90;;;;;;5042713;28;20045;-87
2021/11/20 11:43:34;;;;;;;22.02;7.75;;;11.70;99.90;;;;;;5043866;28;20048;-91
2021/11/20 11:46:25;;;;;;;20.55;7.40;;;11.70;99.90;;;;;;5066495;28;20033;-90
2021/11/20 11:49:26;;;;;;;18.00;8.27;;;11.70;99.90;;;;;;5068463;28;20037;-89
2021/11/20 11:52:16;;;;;;;15.38;6.03;;;11.70;99.90;;;;;;5057992;28;20045;-91
2021/11/20 11:55:03;;;;;;;14.70;6.60;;;11.60;99.90;;;;;;5086612;28;20033;-92
2021/11/20 11:58:13;;;;;;;16.35;6.75;;;11.60;99.90;;;;;;5037320;28;20057;-87
2021/11/20 12:00:49;;;;;;;11.57;4.38;;;11.60;99.90;;;;;;5055242;28;20044;-89
2021/11/20 12:03:32;;;;;;;14.57;6.32;;;11.60;99.90;;;;;;5056310;28;20058;-88
2021/11/20 12:06:03;;;;;;;11.18;5.32;;;11.60;99.90;;;;;;5085828;28;20037;-87
2021/11/20 12:08:37;;;;;;;8.90;4.75;;;11.60;99.90;;;;;;5056079;28;20051;-88
2021/11/20 12:11:29;;;;;;;14.30;4.82;;;11.60;99.90;;;;;;5068484;28;20056;-91
2021/11/20 12:14:19;;;;;;;12.70;5.45;;;11.60;99.90;;;;;;5085175;28;20070;-90
2021/11/20 12:17:03;;;;;;;10.70;5.03;;;11.60;99.90;;;;;;5085711;28;20040;-88
2021/11/20 12:20:14;;;;;;;12.90;5.72;;;11.60;99.90;;;;;;5069180;28;20053;-92
2021/11/20 12:23:11;;;;;;;9.90;5.28;;;11.60;99.90;;;;;;5067597;28;20025;-90
2021/11/20 12:25:48;;;;;;;14.55;5.63;;;11.60;99.90;;;;;;5083942;28;20039;-87
2021/11/20 12:28:38;;;;;;;8.38;5.13;;;11.60;99.90;;;;;;5080662;28;20063;-89
2021/11/20 12:31:36;;;;;;;10.05;5.53;;;11.60;99.90;;;;;;5090038;22;20049;-82
2021/11/20 12:34:31;;;;;;;11.73;5.80;;;11.70;99.90;;;;;;5059839;28;20248;-82
2021/11/20 12:37:32;;;;;;;18.48;8.45;;;11.60;99.90;;;;;;5059433;28;20628;-83
2021/11/20 12:40:27;;;;;;;11.38;6.70;;;11.50;99.90;;;;;;5041745;28;20059;-83
2021/11/20 12:43:11;;;;;;;15.38;7.60;;;11.50;99.90;;;;;;5040692;28;20053;-83
2021/11/20 12:45:56;;;;;;;11.18;5.28;;;11.50;99.90;;;;;;5059334;28;20045;-83
2021/11/20 12:48:46;;;;;;;12.38;4.63;;;11.60;99.90;;;;;;5062343;28;20047;-84
2021/11/20 12:51:26;;;;;;;9.27;4.88;;;11.60;99.90;;;;;;5061303;28;20572;-82
2021/11/20 12:54:06;;;;;;;10.20;5.40;;;11.50;99.90;;;;;;5052497;28;20049;-82
2021/11/20 12:56:39;;;;;;;13.47;5.23;;;11.50;99.90;;;;;;5046096;28;20068;-82
2021/11/20 12:59:26;;;;;;;10.60;4.65;;;11.50;99.90;;;;;;5040874;28;20084;-83
2021/11/20 13:02:05;;;;;;;9.15;3.90;;;12.90;99.90;;;;;;5023457;28;20045;-82
2021/11/20 13:04:47;;;;;;;6.35;3.45;;;11.60;99.90;;;;;;5065660;28;20056;-82
2021/11/20 13:07:21;;;;;;;4.55;3.38;;;11.50;99.90;;;;;;5041974;28;20064;-83
2021/11/20 13:10:06;;;;;;;7.78;4.10;;;11.40;99.90;;;;;;5039971;28;20049;-84
2021/11/20 13:12:43;;;;;;;7.55;3.80;;;11.50;99.90;;;;;;5040425;28;20049;-82
2021/11/20 13:15:48;;;;;;;11.07;4.18;;;11.40;99.90;;;;;;5055845;28;20060;-82
2021/11/20 13:18:33;;;;;;;9.35;4.90;;;11.40;99.90;;;;;;4671403;28;10000337;-82
2021/11/20 13:21:17;;;;;;;7.55;3.83;;;10.90;99.90;;;;;;5038766;28;20049;-82
2021/11/20 13:23:45;;;;;;;11.77;4.05;;;11.50;99.90;;;;;;5054261;28;20049;-81
2021/11/20 13:26:17;;;;;;;8.57;4.47;;;11.50;99.90;;;;;;5069701;28;20049;-82
2021/11/20 13:28:45;;;;;;;9.48;4.80;;;10.90;99.90;;;;;;5050397;28;20052;-83
2021/11/20 13:31:17;;;;;;;8.27;4.10;;;11.40;99.90;;;;;;5038119;28;20053;-82
2021/11/20 13:33:47;;;;;;;9.45;4.03;;;11.40;99.90;;;;;;5053368;28;21044;-83
2021/11/20 13:36:16;;;;;;;9.80;4.60;;;11.40;99.90;;;;;;5036790;28;20316;-82
2021/11/20 13:38:44;;;;;;;9.50;4.55;;;12.90;99.90;;;;;;5042481;28;20055;-82
2021/11/20 13:41:15;;;;;;;14.45;6.05;;;11.40;99.90;;;;;;5051425;28;20045;-91
2021/11/20 13:43:48;;;;;;;13.52;5.72;;;11.50;99.90;;;;;;5050155;28;20053;-82
2021/11/20 13:46:16;;;;;;;8.60;4.25;;;11.40;99.90;;;;;;5026046;28;20049;-82
2021/11/20 13:48:51;;;;;;;12.55;5.13;;;11.00;99.90;;;;;;5044627;28;20060;-82
2021/11/20 13:51:25;;;;;;;12.60;5.00;;;11.40;99.90;;;;;;5043782;28;20056;-82
2021/11/20 13:54:21;;;;;;;14.43;5.60;;;11.40;99.90;;;;;;5043015;28;20045;-82
2021/11/20 13:56:49;;;;;;;16.92;5.68;;;11.40;99.90;;;;;;5043322;28;20068;-83
2021/11/20 13:59:18;;;;;;;12.73;5.88;;;11.40;99.90;;;;;;5044285;28;20049;-82
2021/11/20 14:01:55;;;;;;;10.13;5.30;;;11.40;99.90;;;;;;5027758;28;20383;-82
2021/11/20 14:04:41;;;;;;;11.85;5.93;;;11.40;99.90;;;;;;5043721;28;20056;-83
2021/11/20 14:07:11;;;;;;;9.75;5.00;;;11.30;99.90;;;;;;5043372;28;20045;-82
2021/11/20 14:09:51;;;;;;;11.07;5.82;;;11.30;99.90;;;;;;5028398;28;20075;-82
2021/11/20 14:12:35;;;;;;;10.82;5.25;;;11.30;99.90;;;;;;5021467;28;20049;-84
2021/11/20 14:15:09;;;;;;;11.98;6.03;;;11.30;99.90;;;;;;5056455;28;20061;-82
2021/11/20 14:17:39;;;;;;;11.38;4.80;;;11.30;99.90;;;;;;5024653;28;20048;-83